createdAt,value
2019-04-04T00:00:54.579Z,41.73
2019-04-04T00:01:54.576Z,41.73
2019-04-04T00:02:54.565Z,41.73
2019-04-04T00:03:54.560Z,41.89
2019-04-04T00:04:54.556Z,41.25
2019-04-04T00:05:55.094Z,41.73
2019-04-04T00:06:57.824Z,41.57
2019-04-04T00:07:54.532Z,41.89
2019-04-04T00:08:54.524Z,41.25
2019-04-04T00:09:54.538Z,41.57
2019-04-04T00:10:54.530Z,41.73
2019-04-04T00:11:54.525Z,41.73
2019-04-04T00:12:54.516Z,41.89
2019-04-04T00:13:54.509Z,41.57
2019-04-04T00:14:54.503Z,41.57
2019-04-04T00:15:54.494Z,41.08
2019-04-04T00:16:54.486Z,41.89
2019-04-04T00:17:54.481Z,41.89
2019-04-04T00:18:54.476Z,41.73
2019-04-04T00:19:54.466Z,41.73
2019-04-04T00:20:54.482Z,41.89
2019-04-04T00:21:54.475Z,41.89
2019-04-04T00:22:54.469Z,41.89
2019-04-04T00:23:54.460Z,41.73
2019-04-04T00:24:54.455Z,41.73
2019-04-04T00:25:54.445Z,41.73
2019-04-04T00:26:54.441Z,41.73
2019-04-04T00:27:54.431Z,41.57
2019-04-04T00:28:54.424Z,41.89
2019-04-04T00:29:54.419Z,41.57
2019-04-04T00:30:54.414Z,41.73
2019-04-04T00:31:54.408Z,41.89
2019-04-04T00:32:54.400Z,41.89
2019-04-04T00:33:55.911Z,41.57
2019-04-04T00:34:54.386Z,41.73
2019-04-04T00:35:54.381Z,41.73
2019-04-04T00:36:54.373Z,41.73
2019-04-04T00:37:54.370Z,41.73
2019-04-04T00:38:54.363Z,41.25
2019-04-04T00:39:54.356Z,41.41
2019-04-04T00:40:54.348Z,41.73
2019-04-04T00:41:54.340Z,41.73
2019-04-04T00:42:54.340Z,41.57
2019-04-04T00:43:54.326Z,41.73
2019-04-04T00:44:55.730Z,41.73
2019-04-04T00:45:54.337Z,41.57
2019-04-04T00:46:54.327Z,41.73
2019-04-04T00:47:54.326Z,41.89
2019-04-04T00:48:54.318Z,42.05
2019-04-04T00:49:54.308Z,41.89
2019-04-04T00:50:54.304Z,41.57
2019-04-04T00:51:54.295Z,41.73
2019-04-04T00:52:54.288Z,41.89
2019-04-04T00:53:54.284Z,41.57
2019-04-04T00:54:54.274Z,41.41
2019-04-04T00:55:54.268Z,41.08
2019-04-04T00:56:54.260Z,41.57
2019-04-04T00:57:54.254Z,41.89
2019-04-04T00:58:54.245Z,41.57
2019-04-04T00:59:54.241Z,41.89
2019-04-04T01:00:54.922Z,41.57
2019-04-04T01:01:55.106Z,41.41
2019-04-04T01:02:54.219Z,41.57
2019-04-04T01:03:54.211Z,41.73
2019-04-04T01:04:54.204Z,41.57
2019-04-04T01:05:54.198Z,41.41
2019-04-04T01:06:54.191Z,41.41
2019-04-04T01:07:54.185Z,41.57
2019-04-04T01:08:54.178Z,41.57
2019-04-04T01:09:54.176Z,41.41
2019-04-04T01:10:54.165Z,41.25
2019-04-04T01:11:54.160Z,41.57
2019-04-04T01:12:54.155Z,41.41
2019-04-04T01:13:54.145Z,41.73
2019-04-04T01:14:54.141Z,41.73
2019-04-04T01:15:54.138Z,41.73
2019-04-04T01:16:54.130Z,41.73
2019-04-04T01:17:54.123Z,41.41
2019-04-04T01:18:54.114Z,41.57
2019-04-04T01:19:54.107Z,41.57
2019-04-04T01:20:54.126Z,41.73
2019-04-04T01:21:54.117Z,41.73
2019-04-04T01:22:56.095Z,41.73
2019-04-04T01:23:54.105Z,41.89
2019-04-04T01:24:54.100Z,41.41
2019-04-04T01:25:54.094Z,41.73
2019-04-04T01:26:54.087Z,41.73
2019-04-04T01:27:54.082Z,41.89
2019-04-04T01:28:54.077Z,41.25
2019-04-04T01:29:54.070Z,41.73
2019-04-04T01:30:54.063Z,41.73
2019-04-04T01:31:54.058Z,41.57
2019-04-04T01:32:54.055Z,41.41
2019-04-04T01:33:54.073Z,41.73
2019-04-04T01:34:54.036Z,41.41
2019-04-04T01:35:54.599Z,41.73
2019-04-04T01:36:55.999Z,41.25
2019-04-04T01:37:54.019Z,41.41
2019-04-04T01:38:54.011Z,41.73
2019-04-04T01:39:54.007Z,41.73
2019-04-04T01:40:55.095Z,41.25
2019-04-04T01:41:53.993Z,41.73
2019-04-04T01:42:53.991Z,41.57
2019-04-04T01:44:04.567Z,41.41
2019-04-04T01:46:21.249Z,41.41
2019-04-04T01:47:21.243Z,41.57
2019-04-04T01:48:21.237Z,41.25
2019-04-04T01:49:21.805Z,41.57
2019-04-04T01:50:22.920Z,41.57
2019-04-04T01:51:21.217Z,41.41
2019-04-04T01:52:21.211Z,41.57
2019-04-04T01:53:21.202Z,41.73
2019-04-04T01:54:21.198Z,41.25
2019-04-04T01:55:21.239Z,41.73
2019-04-04T01:56:21.184Z,41.57
2019-04-04T01:57:21.180Z,41.25
2019-04-04T01:58:21.177Z,41.57
2019-04-04T01:59:21.164Z,41.57
2019-04-04T02:00:21.159Z,41.25
2019-04-04T02:01:21.156Z,41.57
2019-04-04T02:02:21.147Z,41.41
2019-04-04T02:03:22.747Z,41.41
2019-04-04T02:04:21.134Z,41.41
2019-04-04T02:05:21.124Z,41.25
2019-04-04T02:06:21.118Z,41.25
2019-04-04T02:07:21.172Z,41.41
2019-04-04T02:08:21.102Z,41.25
2019-04-04T02:09:21.097Z,41.73
2019-04-04T02:10:21.090Z,41.57
2019-04-04T02:11:21.082Z,40.92
2019-04-04T02:12:21.078Z,41.57
2019-04-04T02:13:21.073Z,41.08
2019-04-04T02:14:21.065Z,41.41
2019-04-04T02:15:21.060Z,40.92
2019-04-04T02:16:21.079Z,41.57
2019-04-04T02:17:22.393Z,41.08
2019-04-04T02:18:23.280Z,41.41
2019-04-04T02:19:21.033Z,41.41
2019-04-04T02:20:21.026Z,41.57
2019-04-04T02:21:21.018Z,41.25
2019-04-04T02:22:21.011Z,41.25
2019-04-04T02:23:21.007Z,41.25
2019-04-04T02:24:20.998Z,41.25
2019-04-04T02:25:20.990Z,41.57
2019-04-04T02:26:20.986Z,41.57
2019-04-04T02:27:20.979Z,41.25
2019-04-04T02:28:20.971Z,41.57
2019-04-04T02:29:20.966Z,41.25
2019-04-04T02:30:20.968Z,41.57
2019-04-04T02:31:21.850Z,41.25
2019-04-04T02:32:20.948Z,41.25
2019-04-04T02:33:20.947Z,41.57
2019-04-04T02:34:20.935Z,41.41
2019-04-04T02:35:20.938Z,41.25
2019-04-04T02:36:20.919Z,41.57
2019-04-04T02:37:22.008Z,41.57
2019-04-04T02:38:20.917Z,41.25
2019-04-04T02:39:20.910Z,41.57
2019-04-04T02:40:20.903Z,41.57
2019-04-04T02:41:20.898Z,41.08
2019-04-04T02:42:22.265Z,41.41
2019-04-04T02:43:20.886Z,41.25
2019-04-04T02:44:20.876Z,41.57
2019-04-04T02:45:20.875Z,41.25
2019-04-04T02:46:20.867Z,41.08
2019-04-04T02:47:20.865Z,41.41
2019-04-04T02:48:23.815Z,41.25
2019-04-04T02:49:20.869Z,41.25
2019-04-04T02:50:20.859Z,41.41
2019-04-04T02:51:20.853Z,41.25
2019-04-04T02:52:20.869Z,41.08
2019-04-04T02:53:20.865Z,41.41
2019-04-04T02:54:24.148Z,41.41
2019-04-04T02:55:20.854Z,41.57
2019-04-04T02:56:20.844Z,41.41
2019-04-04T02:57:20.837Z,41.25
2019-04-04T02:58:20.831Z,41.41
2019-04-04T02:59:22.048Z,41.41
2019-04-04T03:00:20.827Z,41.41
2019-04-04T03:01:20.813Z,41.25
2019-04-04T03:02:20.810Z,41.57
2019-04-04T03:03:20.804Z,41.41
2019-04-04T03:04:20.798Z,41.57
2019-04-04T03:05:20.790Z,41.41
2019-04-04T03:06:24.058Z,41.57
2019-04-04T03:07:20.778Z,41.25
2019-04-04T03:08:20.769Z,41.25
2019-04-04T03:09:20.764Z,41.25
2019-04-04T03:10:20.758Z,41.08
2019-04-04T03:11:21.989Z,41.41
2019-04-04T03:12:20.745Z,41.41
2019-04-04T03:13:20.739Z,41.41
2019-04-04T03:14:20.738Z,41.41
2019-04-04T03:15:20.730Z,41.41
2019-04-04T03:16:21.616Z,41.08
2019-04-04T03:17:20.847Z,41.41
2019-04-04T03:18:20.709Z,41.25
2019-04-04T03:19:20.702Z,41.25
2019-04-04T03:20:20.692Z,41.41
2019-04-04T03:21:23.358Z,41.25
2019-04-04T03:22:20.688Z,41.41
2019-04-04T03:23:20.680Z,41.25
2019-04-04T03:24:20.675Z,41.57
2019-04-04T03:25:20.674Z,40.60
2019-04-04T03:26:20.724Z,41.25
2019-04-04T03:27:25.778Z,41.41
2019-04-04T03:29:47.892Z,41.41
2019-04-04T03:31:00.737Z,41.08
2019-04-04T03:33:15.104Z,41.25
2019-04-04T03:34:15.103Z,41.25
2019-04-04T03:35:15.087Z,41.41
2019-04-04T03:36:15.082Z,41.08
2019-04-04T03:37:15.074Z,41.57
2019-04-04T03:38:15.071Z,41.73
2019-04-04T03:39:19.282Z,41.25
2019-04-04T03:40:15.074Z,41.57
2019-04-04T03:41:15.052Z,41.25
2019-04-04T03:42:15.045Z,41.89
2019-04-04T03:43:16.103Z,41.57
2019-04-04T03:44:15.050Z,41.57
2019-04-04T03:45:15.040Z,41.57
2019-04-04T03:46:15.026Z,41.41
2019-04-04T03:47:15.018Z,41.57
2019-04-04T03:48:17.467Z,41.73
2019-04-04T03:49:15.006Z,41.41
2019-04-04T03:50:15.005Z,41.41
2019-04-04T03:51:14.997Z,41.57
2019-04-04T03:52:15.010Z,41.73
2019-04-04T03:53:17.324Z,41.25
2019-04-04T03:54:14.972Z,41.57
2019-04-04T03:55:14.972Z,41.73
2019-04-04T03:56:14.960Z,41.73
2019-04-04T03:57:14.965Z,41.57
2019-04-04T03:58:14.965Z,41.57
2019-04-04T03:59:14.945Z,41.73
2019-04-04T04:00:14.935Z,41.57
2019-04-04T04:01:14.930Z,41.57
2019-04-04T04:02:17.829Z,41.57
2019-04-04T04:03:14.916Z,41.41
2019-04-04T04:04:14.910Z,41.73
2019-04-04T04:05:14.908Z,41.89
2019-04-04T04:06:14.897Z,41.57
2019-04-04T04:07:15.395Z,41.73
2019-04-04T04:08:14.907Z,41.41
2019-04-04T04:09:14.900Z,41.41
2019-04-04T04:10:14.892Z,41.25
2019-04-04T04:11:14.886Z,41.25
2019-04-04T04:12:14.890Z,41.73
2019-04-04T04:13:17.329Z,41.41
2019-04-04T04:14:14.867Z,41.25
2019-04-04T04:15:14.868Z,41.41
2019-04-04T04:16:14.852Z,41.57
2019-04-04T04:17:14.845Z,41.41
2019-04-04T04:18:14.843Z,41.57
2019-04-04T04:19:14.839Z,41.57
2019-04-04T04:20:14.831Z,41.41
2019-04-04T04:21:14.821Z,41.25
2019-04-04T04:22:18.011Z,41.25
2019-04-04T04:23:14.813Z,41.57
2019-04-04T04:24:14.805Z,41.57
2019-04-04T04:25:14.808Z,41.41
2019-04-04T04:26:14.789Z,41.73
2019-04-04T04:27:15.762Z,41.73
2019-04-04T04:28:14.796Z,41.73
2019-04-04T04:29:14.773Z,41.57
2019-04-04T04:30:14.811Z,40.92
2019-04-04T04:31:15.601Z,41.73
2019-04-04T04:32:14.748Z,41.57
2019-04-04T04:33:14.743Z,41.57
2019-04-04T04:34:14.741Z,41.73
2019-04-04T04:35:14.729Z,41.89
2019-04-04T04:36:15.631Z,41.89
2019-04-04T04:37:14.717Z,41.89
2019-04-04T04:38:14.712Z,41.73
2019-04-04T04:39:14.698Z,41.08
2019-04-04T04:40:15.404Z,41.41
2019-04-04T04:41:14.687Z,41.57
2019-04-04T04:42:14.683Z,41.73
2019-04-04T04:43:15.574Z,41.57
2019-04-04T04:44:14.669Z,41.25
2019-04-04T04:45:14.663Z,41.57
2019-04-04T04:46:17.811Z,41.73
2019-04-04T04:47:14.648Z,41.41
2019-04-04T04:48:14.642Z,41.41
2019-04-04T04:49:14.634Z,41.57
2019-04-04T04:50:14.627Z,41.41
2019-04-04T04:51:14.622Z,41.57
2019-04-04T04:52:15.374Z,41.73
2019-04-04T04:53:18.330Z,41.57
2019-04-04T04:54:14.607Z,41.57
2019-04-04T04:55:14.595Z,41.41
2019-04-04T04:56:17.420Z,41.41
2019-04-04T04:57:28.779Z,41.57
2019-04-04T04:59:44.335Z,41.73
2019-04-04T05:00:41.790Z,41.41
2019-04-04T05:01:41.784Z,41.73
2019-04-04T05:02:41.776Z,42.05
2019-04-04T05:03:41.775Z,41.73
2019-04-04T05:04:41.765Z,41.73
2019-04-04T05:05:41.762Z,41.73
2019-04-04T05:06:41.753Z,41.57
2019-04-04T05:07:41.745Z,41.25
2019-04-04T05:08:41.737Z,41.73
2019-04-04T05:09:42.939Z,41.89
2019-04-04T05:10:41.744Z,41.57
2019-04-04T05:11:41.736Z,41.89
2019-04-04T05:12:41.730Z,41.73
2019-04-04T05:13:41.723Z,41.73
2019-04-04T05:14:41.719Z,41.41
2019-04-04T05:15:41.713Z,42.05
2019-04-04T05:16:41.703Z,41.73
2019-04-04T05:17:41.951Z,41.73
2019-04-04T05:18:41.692Z,41.89
2019-04-04T05:19:41.685Z,41.89
2019-04-04T05:20:41.701Z,41.57
2019-04-04T05:21:41.693Z,41.41
2019-04-04T05:22:41.685Z,41.89
2019-04-04T05:23:41.680Z,41.73
2019-04-04T05:24:41.686Z,42.05
2019-04-04T05:25:53.401Z,41.57
2019-04-04T05:28:10.819Z,41.73
2019-04-04T05:29:08.899Z,41.73
2019-04-04T05:30:08.894Z,41.57
2019-04-04T05:31:08.888Z,41.73
2019-04-04T05:32:08.882Z,41.73
2019-04-04T05:33:08.872Z,41.57
2019-04-04T05:34:08.868Z,41.57
2019-04-04T05:35:08.860Z,42.05
2019-04-04T05:36:08.854Z,42.05
2019-04-04T05:37:08.871Z,41.73
2019-04-04T05:38:12.265Z,41.73
2019-04-04T05:39:08.854Z,42.05
2019-04-04T05:40:08.847Z,41.73
2019-04-04T05:41:08.843Z,41.73
2019-04-04T05:42:08.832Z,41.41
2019-04-04T05:43:08.827Z,41.57
2019-04-04T05:44:09.942Z,41.41
2019-04-04T05:45:08.863Z,40.92
2019-04-04T05:46:08.808Z,41.41
2019-04-04T05:47:08.804Z,41.73
2019-04-04T05:48:08.823Z,41.57
2019-04-04T05:49:08.816Z,41.73
2019-04-04T05:50:11.030Z,41.41
2019-04-04T05:51:08.773Z,41.73
2019-04-04T05:52:09.265Z,41.57
2019-04-04T05:53:08.764Z,41.73
2019-04-04T05:54:08.760Z,40.76
2019-04-04T05:55:10.931Z,41.57
2019-04-04T05:56:08.748Z,41.57
2019-04-04T05:57:08.739Z,41.73
2019-04-04T05:58:08.737Z,41.57
2019-04-04T05:59:08.739Z,41.89
2019-04-04T06:00:08.716Z,41.73
2019-04-04T06:01:09.010Z,41.89
2019-04-04T06:02:11.031Z,41.89
2019-04-04T06:03:08.702Z,42.05
2019-04-04T06:04:08.691Z,41.73
2019-04-04T06:05:08.709Z,41.41
2019-04-04T06:06:10.538Z,41.73
2019-04-04T06:07:08.672Z,41.73
2019-04-04T06:08:08.809Z,41.41
2019-04-04T06:09:08.661Z,41.73
2019-04-04T06:10:11.830Z,41.41
2019-04-04T06:11:08.651Z,41.89
2019-04-04T06:12:08.642Z,41.57
2019-04-04T06:13:08.635Z,41.25
2019-04-04T06:14:08.631Z,42.05
2019-04-04T06:15:08.628Z,41.57
2019-04-04T06:16:08.621Z,41.89
2019-04-04T06:17:08.610Z,41.73
2019-04-04T06:18:10.946Z,42.05
2019-04-04T06:19:08.599Z,41.25
2019-04-04T06:20:08.602Z,41.73
2019-04-04T06:21:08.587Z,41.73
2019-04-04T06:22:08.581Z,41.57
2019-04-04T06:23:08.579Z,41.73
2019-04-04T06:24:08.569Z,41.73
2019-04-04T06:25:08.569Z,41.73
2019-04-04T06:26:08.558Z,41.57
2019-04-04T06:27:09.098Z,41.57
2019-04-04T06:28:09.920Z,42.05
2019-04-04T06:29:08.551Z,41.73
2019-04-04T06:30:08.541Z,41.73
2019-04-04T06:31:08.535Z,41.25
2019-04-04T06:32:08.530Z,41.73
2019-04-04T06:33:08.546Z,41.73
2019-04-04T06:34:10.405Z,41.89
2019-04-04T06:35:08.516Z,42.05
2019-04-04T06:36:08.510Z,41.73
2019-04-04T06:37:08.504Z,42.05
2019-04-04T06:38:08.500Z,41.25
2019-04-04T06:39:08.498Z,41.57
2019-04-04T06:40:08.484Z,42.05
2019-04-04T06:41:08.478Z,42.21
2019-04-04T06:42:11.249Z,41.89
2019-04-04T06:43:11.591Z,41.73
2019-04-04T06:44:08.457Z,41.73
2019-04-04T06:45:08.452Z,41.25
2019-04-04T06:46:08.443Z,41.89
2019-04-04T06:47:08.495Z,41.57
2019-04-04T06:48:08.433Z,41.73
2019-04-04T06:49:08.424Z,41.41
2019-04-04T06:50:08.668Z,41.57
2019-04-04T06:51:08.430Z,41.73
2019-04-04T06:52:09.507Z,41.41
2019-04-04T06:53:08.417Z,41.57
2019-04-04T06:54:08.415Z,41.57
2019-04-04T06:55:08.404Z,41.57
2019-04-04T06:56:08.401Z,41.73
2019-04-04T06:57:08.392Z,41.73
2019-04-04T06:58:09.498Z,41.73
2019-04-04T06:59:11.328Z,41.73
2019-04-04T07:00:08.380Z,41.57
2019-04-04T07:01:11.005Z,42.21
2019-04-04T07:02:08.359Z,42.05
2019-04-04T07:03:08.352Z,42.05
2019-04-04T07:04:08.345Z,41.73
2019-04-04T07:05:10.565Z,41.73
2019-04-04T07:06:10.222Z,41.73
2019-04-04T07:07:08.335Z,41.57
2019-04-04T07:08:08.322Z,41.41
2019-04-04T07:09:08.315Z,41.89
2019-04-04T07:10:08.308Z,41.89
2019-04-04T07:11:20.558Z,41.57
2019-04-04T07:12:20.886Z,42.21
2019-04-04T07:14:45.529Z,41.08
2019-04-04T07:17:02.814Z,41.73
2019-04-04T07:18:02.718Z,41.25
2019-04-04T07:19:02.713Z,41.57
2019-04-04T07:20:02.714Z,41.73
2019-04-04T07:21:03.708Z,42.05
2019-04-04T07:22:02.691Z,41.73
2019-04-04T07:23:02.684Z,41.41
2019-04-04T07:24:02.677Z,41.41
2019-04-04T07:25:05.730Z,41.57
2019-04-04T07:26:02.666Z,41.41
2019-04-04T07:27:02.658Z,41.25
2019-04-04T07:28:02.658Z,41.57
2019-04-04T07:29:02.646Z,41.73
2019-04-04T07:30:02.642Z,41.73
2019-04-04T07:31:02.645Z,41.41
2019-04-04T07:32:02.629Z,41.73
2019-04-04T07:33:02.620Z,41.57
2019-04-04T07:34:02.617Z,41.57
2019-04-04T07:35:02.608Z,41.41
2019-04-04T07:36:02.600Z,41.41
2019-04-04T07:37:02.595Z,41.41
2019-04-04T07:38:02.585Z,41.73
2019-04-04T07:39:02.577Z,41.73
2019-04-04T07:40:03.532Z,41.57
2019-04-04T07:41:02.565Z,41.25
2019-04-04T07:42:02.560Z,41.25
2019-04-04T07:43:02.558Z,41.08
2019-04-04T07:44:02.545Z,41.57
2019-04-04T07:45:02.537Z,41.25
2019-04-04T07:46:15.743Z,41.57
2019-04-04T07:47:04.525Z,41.57
2019-04-04T07:48:02.519Z,41.57
2019-04-04T07:49:02.514Z,41.41
2019-04-04T07:50:02.509Z,41.57
2019-04-04T07:51:02.501Z,41.41
2019-04-04T07:52:02.504Z,40.92
2019-04-04T07:53:04.811Z,41.57
2019-04-04T07:54:02.494Z,41.57
2019-04-04T07:55:02.489Z,41.41
2019-04-04T07:56:02.484Z,41.57
2019-04-04T07:57:02.479Z,41.25
2019-04-04T07:58:02.471Z,41.57
2019-04-04T07:59:02.468Z,41.25
2019-04-04T08:00:02.458Z,41.73
2019-04-04T08:01:02.452Z,42.05
2019-04-04T08:02:02.446Z,41.57
2019-04-04T08:03:02.441Z,41.73
2019-04-04T08:04:02.452Z,41.41
2019-04-04T08:05:02.446Z,41.57
2019-04-04T08:06:02.437Z,42.05
2019-04-04T08:07:02.434Z,41.73
2019-04-04T08:08:02.448Z,41.57
2019-04-04T08:09:02.448Z,41.41
2019-04-04T08:10:02.441Z,41.57
2019-04-04T08:11:02.437Z,41.57
2019-04-04T08:12:02.427Z,41.89
2019-04-04T08:13:02.421Z,41.57
2019-04-04T08:14:02.418Z,41.57
2019-04-04T08:15:02.407Z,41.73
2019-04-04T08:16:02.405Z,41.41
2019-04-04T08:17:02.394Z,41.57
2019-04-04T08:18:02.388Z,41.89
2019-04-04T08:19:02.381Z,41.73
2019-04-04T08:20:02.391Z,41.73
2019-04-04T08:21:02.384Z,41.73
2019-04-04T08:22:02.399Z,41.73
2019-04-04T08:23:02.355Z,41.25
2019-04-04T08:24:02.354Z,41.25
2019-04-04T08:25:02.343Z,41.41
2019-04-04T08:26:02.334Z,41.57
2019-04-04T08:27:02.326Z,41.89
2019-04-04T08:28:02.321Z,41.57
2019-04-04T08:29:02.316Z,41.41
2019-04-04T08:30:02.309Z,41.73
2019-04-04T08:31:02.303Z,41.73
2019-04-04T08:32:02.295Z,41.89
2019-04-04T08:33:02.288Z,41.73
2019-04-04T08:34:02.287Z,41.73
2019-04-04T08:35:02.292Z,41.73
2019-04-04T08:36:06.145Z,41.89
2019-04-04T08:37:02.278Z,41.73
2019-04-04T08:38:02.272Z,41.73
2019-04-04T08:39:02.265Z,41.89
2019-04-04T08:40:02.258Z,41.73
2019-04-04T08:41:02.254Z,41.41
2019-04-04T08:42:02.253Z,41.73
2019-04-04T08:43:02.248Z,41.89
2019-04-04T08:44:02.242Z,41.57
2019-04-04T08:45:02.253Z,41.08
2019-04-04T08:46:02.228Z,41.41
2019-04-04T08:47:02.320Z,41.89
2019-04-04T08:48:02.238Z,42.05
2019-04-04T08:49:02.224Z,42.05
2019-04-04T08:50:02.218Z,41.57
2019-04-04T08:51:02.214Z,41.57
2019-04-04T08:52:02.202Z,41.57
2019-04-04T08:53:02.197Z,41.41
2019-04-04T08:54:02.240Z,41.73
2019-04-04T08:55:02.191Z,41.57
2019-04-04T08:56:02.179Z,41.41
2019-04-04T08:57:02.171Z,41.73
2019-04-04T08:58:02.162Z,41.08
2019-04-04T08:59:02.159Z,41.73
2019-04-04T09:00:02.155Z,41.73
2019-04-04T09:01:02.145Z,41.73
2019-04-04T09:02:02.143Z,41.57
2019-04-04T09:03:02.182Z,41.73
2019-04-04T09:04:02.129Z,41.89
2019-04-04T09:05:11.825Z,42.37
2019-04-04T09:07:29.339Z,42.37
2019-04-04T09:08:29.331Z,41.89
2019-04-04T09:09:29.343Z,42.05
2019-04-04T09:10:29.321Z,42.05
2019-04-04T09:11:29.315Z,41.73
2019-04-04T09:12:29.307Z,41.73
2019-04-04T09:13:29.324Z,42.37
2019-04-04T09:14:29.315Z,42.37
2019-04-04T09:15:29.319Z,41.73
2019-04-04T09:16:29.306Z,41.73
2019-04-04T09:17:29.297Z,41.73
2019-04-04T09:18:29.292Z,41.57
2019-04-04T09:19:29.292Z,41.89
2019-04-04T09:20:29.278Z,41.89
2019-04-04T09:21:29.273Z,41.89
2019-04-04T09:22:29.262Z,41.73
2019-04-04T09:23:29.259Z,41.89
2019-04-04T09:24:29.250Z,41.57
2019-04-04T09:25:29.246Z,41.73
2019-04-04T09:26:29.240Z,41.89
2019-04-04T09:27:29.230Z,42.05
2019-04-04T09:28:29.222Z,41.57
2019-04-04T09:29:29.218Z,41.41
2019-04-04T09:30:29.213Z,41.89
2019-04-04T09:31:29.208Z,41.25
2019-04-04T09:32:29.199Z,41.73
2019-04-04T09:33:29.191Z,41.89
2019-04-04T09:34:29.187Z,41.57
2019-04-04T09:35:29.182Z,41.57
2019-04-04T09:36:29.174Z,41.57
2019-04-04T09:37:29.188Z,41.73
2019-04-04T09:38:29.351Z,41.41
2019-04-04T09:39:29.175Z,41.73
2019-04-04T09:40:29.168Z,41.73
2019-04-04T09:41:29.158Z,41.41
2019-04-04T09:42:29.154Z,41.25
2019-04-04T09:43:29.147Z,41.57
2019-04-04T09:44:29.141Z,41.57
2019-04-04T09:45:29.134Z,41.41
2019-04-04T09:46:29.128Z,41.57
2019-04-04T09:47:29.121Z,41.57
2019-04-04T09:48:29.116Z,41.57
2019-04-04T09:49:29.112Z,41.73
2019-04-04T09:50:29.102Z,41.89
2019-04-04T09:51:29.298Z,41.89
2019-04-04T09:52:29.094Z,41.25
2019-04-04T09:53:29.086Z,41.89
2019-04-04T09:54:29.077Z,42.05
2019-04-04T09:55:29.071Z,42.05
2019-04-04T09:56:29.064Z,41.57
2019-04-04T09:57:29.058Z,41.57
2019-04-04T09:58:29.051Z,42.21
2019-04-04T09:59:29.050Z,42.05
2019-04-04T10:00:29.038Z,41.57
2019-04-04T10:01:29.032Z,41.41
2019-04-04T10:02:29.023Z,41.25
2019-04-04T10:03:29.346Z,41.41
2019-04-04T10:04:29.011Z,41.57
2019-04-04T10:05:29.005Z,41.73
2019-04-04T10:06:29.002Z,41.57
2019-04-04T10:07:28.990Z,41.08
2019-04-04T10:08:28.982Z,41.89
2019-04-04T10:09:28.975Z,41.25
2019-04-04T10:10:28.969Z,41.41
2019-04-04T10:11:28.965Z,41.73
2019-04-04T10:12:29.682Z,41.73
2019-04-04T10:13:28.949Z,41.89
2019-04-04T10:14:28.941Z,41.73
2019-04-04T10:15:28.934Z,41.41
2019-04-04T10:16:28.928Z,41.41
2019-04-04T10:17:28.920Z,41.57
2019-04-04T10:18:28.915Z,41.25
2019-04-04T10:19:28.911Z,41.25
2019-04-04T10:20:28.905Z,41.41
2019-04-04T10:21:28.897Z,41.57
2019-04-04T10:22:28.892Z,41.57
2019-04-04T10:23:28.882Z,41.57
2019-04-04T10:24:28.875Z,41.57
2019-04-04T10:25:28.871Z,41.73
2019-04-04T10:26:28.864Z,41.73
2019-04-04T10:27:28.861Z,41.73
2019-04-04T10:28:28.850Z,41.57
2019-04-04T10:29:28.843Z,41.57
2019-04-04T10:30:28.838Z,41.89
2019-04-04T10:31:28.831Z,41.08
2019-04-04T10:32:28.837Z,41.25
2019-04-04T10:33:28.820Z,42.05
2019-04-04T10:34:28.820Z,41.89
2019-04-04T10:35:28.806Z,41.89
2019-04-04T10:36:28.796Z,41.73
2019-04-04T10:37:28.790Z,41.57
2019-04-04T10:38:28.784Z,41.57
2019-04-04T10:39:31.349Z,41.89
2019-04-04T10:40:28.772Z,42.05
2019-04-04T10:41:28.763Z,41.73
2019-04-04T10:42:28.758Z,41.89
2019-04-04T10:43:28.755Z,42.05
2019-04-04T10:44:28.745Z,41.89
2019-04-04T10:45:28.741Z,41.57
2019-04-04T10:46:28.734Z,41.73
2019-04-04T10:47:28.727Z,41.41
2019-04-04T10:48:28.721Z,41.57
2019-04-04T10:49:28.721Z,41.57
2019-04-04T10:50:28.710Z,41.08
2019-04-04T10:51:28.700Z,41.73
2019-04-04T10:52:28.694Z,41.25
2019-04-04T10:53:28.710Z,41.41
2019-04-04T10:54:28.703Z,41.73
2019-04-04T10:55:28.702Z,41.41
2019-04-04T10:56:28.691Z,41.41
2019-04-04T10:57:28.682Z,41.73
2019-04-04T10:58:28.678Z,50.75
2019-04-04T10:59:28.668Z,53.01
2019-04-04T11:00:28.663Z,42.37
2019-04-04T11:01:28.658Z,41.41
2019-04-04T11:02:28.648Z,42.05
2019-04-04T11:03:28.642Z,42.05
2019-04-04T11:04:28.638Z,41.08
2019-04-04T11:05:28.629Z,43.34
2019-04-04T11:06:28.625Z,42.37
2019-04-04T11:07:28.619Z,41.25
2019-04-04T11:08:28.610Z,44.47
2019-04-04T11:09:40.900Z,46.56
2019-04-04T11:11:55.875Z,42.53
2019-04-04T11:12:55.868Z,42.37
2019-04-04T11:13:55.862Z,41.89
2019-04-04T11:14:55.853Z,43.34
2019-04-04T11:15:55.852Z,44.79
2019-04-04T11:16:56.224Z,42.05
2019-04-04T11:17:55.835Z,42.53
2019-04-04T11:18:55.829Z,42.21
2019-04-04T11:19:55.820Z,43.02
2019-04-04T11:20:55.813Z,41.25
2019-04-04T11:21:55.807Z,41.89
2019-04-04T11:22:55.816Z,42.53
2019-04-04T11:23:55.812Z,42.37
2019-04-04T11:24:55.805Z,44.79
2019-04-04T11:25:55.797Z,43.34
2019-04-04T11:26:55.792Z,41.57
2019-04-04T11:27:55.784Z,42.70
2019-04-04T11:28:55.779Z,42.86
2019-04-04T11:29:55.778Z,48.17
2019-04-04T11:30:55.764Z,41.73
2019-04-04T11:31:55.775Z,41.41
2019-04-04T11:32:55.774Z,41.41
2019-04-04T11:33:55.767Z,43.82
2019-04-04T11:34:55.756Z,43.34
2019-04-04T11:35:55.749Z,43.66
2019-04-04T11:36:55.740Z,44.47
2019-04-04T11:37:55.737Z,43.82
2019-04-04T11:38:55.732Z,40.60
2019-04-04T11:39:55.722Z,41.89
2019-04-04T11:40:55.722Z,42.21
2019-04-04T11:41:55.716Z,42.37
2019-04-04T11:42:55.705Z,41.57
2019-04-04T11:43:55.699Z,42.86
2019-04-04T11:44:55.694Z,45.11
2019-04-04T11:45:55.684Z,43.98
2019-04-04T11:46:55.680Z,42.86
2019-04-04T11:47:55.671Z,43.18
2019-04-04T11:48:55.662Z,42.86
2019-04-04T11:49:55.657Z,44.79
2019-04-04T11:50:55.654Z,45.76
2019-04-04T11:51:55.644Z,41.57
2019-04-04T11:52:55.663Z,42.53
2019-04-04T11:53:55.656Z,41.25
2019-04-04T11:54:55.648Z,41.57
2019-04-04T11:55:55.642Z,41.57
2019-04-04T11:56:55.639Z,41.73
2019-04-04T11:57:55.631Z,41.57
2019-04-04T11:58:55.630Z,40.76
2019-04-04T11:59:55.633Z,41.25
2019-04-04T12:00:55.614Z,41.08
2019-04-04T12:01:55.621Z,41.41
2019-04-04T12:02:55.601Z,42.86
2019-04-04T12:03:55.593Z,44.47
2019-04-04T12:04:57.819Z,42.37
2019-04-04T12:05:55.582Z,44.15
2019-04-04T12:06:55.573Z,42.86
2019-04-04T12:07:55.566Z,41.57
2019-04-04T12:08:55.568Z,44.31
2019-04-04T12:10:06.743Z,43.82
2019-04-04T12:10:57.550Z,42.05
2019-04-04T12:11:55.542Z,42.86
2019-04-04T12:12:58.453Z,43.50
2019-04-04T12:13:55.530Z,43.50
2019-04-04T12:14:55.524Z,41.41
2019-04-04T12:15:55.539Z,42.05
2019-04-04T12:16:55.532Z,41.08
2019-04-04T12:17:55.530Z,43.02
2019-04-04T12:18:55.519Z,50.91
2019-04-04T12:19:55.512Z,42.05
2019-04-04T12:20:55.509Z,43.34
2019-04-04T12:21:55.500Z,50.43
2019-04-04T12:22:55.492Z,41.89
2019-04-04T12:23:55.486Z,61.39
2019-04-04T12:24:55.479Z,50.91
2019-04-04T12:25:55.474Z,46.24
2019-04-04T12:26:55.469Z,60.42
2019-04-04T12:27:55.461Z,62.03
2019-04-04T12:28:55.459Z,50.75
2019-04-04T12:29:55.450Z,45.92
2019-04-04T12:30:55.443Z,46.88
2019-04-04T12:31:55.437Z,50.11
2019-04-04T12:32:55.432Z,49.62
2019-04-04T12:33:55.425Z,46.24
2019-04-04T12:34:55.421Z,48.01
2019-04-04T12:35:55.411Z,48.33
2019-04-04T12:36:55.405Z,51.72
2019-04-04T12:37:55.399Z,54.46
2019-04-04T12:38:55.391Z,46.56
2019-04-04T12:39:55.384Z,45.92
2019-04-04T12:40:55.376Z,46.72
2019-04-04T12:41:55.373Z,47.37
2019-04-04T12:42:55.363Z,52.69
2019-04-04T12:43:55.357Z,49.46
2019-04-04T12:44:55.355Z,51.40
2019-04-04T12:45:55.347Z,49.62
2019-04-04T12:46:55.350Z,47.21
2019-04-04T12:47:55.336Z,48.01
2019-04-04T12:48:55.326Z,54.62
2019-04-04T12:49:55.322Z,45.60
2019-04-04T12:50:55.313Z,51.07
2019-04-04T12:51:55.305Z,47.05
2019-04-04T12:52:55.295Z,50.91
2019-04-04T12:53:55.293Z,51.56
2019-04-04T12:54:55.284Z,52.36
2019-04-04T12:55:55.280Z,48.17
2019-04-04T12:56:55.273Z,48.66
2019-04-04T12:57:55.268Z,46.88
2019-04-04T12:58:55.258Z,50.43
2019-04-04T12:59:55.253Z,49.79
2019-04-04T13:00:55.269Z,48.01
2019-04-04T13:01:55.265Z,54.14
2019-04-04T13:02:55.259Z,50.91
2019-04-04T13:03:55.251Z,53.01
2019-04-04T13:04:55.258Z,51.24
2019-04-04T13:05:55.251Z,46.88